createdAt,value
2017-09-04T00:00:52.288Z,21.06
2017-09-04T00:02:58.508Z,22.22
2017-09-04T00:05:05.203Z,21.86
2017-09-04T00:07:10.745Z,21.74
2017-09-04T00:09:16.896Z,21.59
2017-09-04T00:11:23.251Z,21.72
2017-09-04T00:13:29.819Z,21.62
2017-09-04T00:15:39.026Z,21.40
2017-09-04T00:17:46.525Z,21.73
2017-09-04T00:19:54.863Z,20.98
2017-09-04T00:22:01.431Z,21.31
2017-09-04T00:24:07.624Z,21.04
2017-09-04T00:26:13.687Z,20.67
2017-09-04T00:28:19.186Z,21.05
2017-09-04T00:30:25.418Z,21.11
2017-09-04T00:32:31.200Z,20.88
2017-09-04T00:34:39.785Z,21.06
2017-09-04T00:36:47.025Z,21.02
2017-09-04T00:38:54.035Z,20.81
2017-09-04T00:41:00.292Z,20.84
2017-09-04T00:43:06.561Z,20.68
2017-09-04T00:45:12.615Z,21.01
2017-09-04T00:47:18.997Z,21.04
2017-09-04T00:49:25.266Z,21.27
2017-09-04T00:51:31.509Z,21.26
2017-09-04T00:53:39.887Z,21.18
2017-09-04T00:55:46.941Z,20.54
2017-09-04T00:57:55.168Z,20.76
2017-09-04T01:00:00.596Z,20.28
2017-09-04T01:02:06.264Z,20.04
2017-09-04T01:04:12.148Z,20.41
2017-09-04T01:06:18.023Z,20.52
2017-09-04T01:08:23.955Z,20.74
2017-09-04T01:10:30.416Z,20.85
2017-09-04T01:12:41.114Z,21.00
2017-09-04T01:14:52.408Z,21.00
2017-09-04T01:16:59.943Z,21.44
2017-09-04T01:19:06.030Z,20.74
2017-09-04T01:21:12.417Z,21.28
2017-09-04T01:23:18.753Z,20.74
2017-09-04T01:25:24.948Z,21.13
2017-09-04T01:27:31.208Z,21.42
2017-09-04T01:29:46.051Z,20.76
2017-09-04T01:31:53.845Z,20.89
2017-09-04T01:34:01.852Z,21.76
2017-09-04T01:36:08.231Z,21.49
2017-09-04T01:38:14.355Z,20.62
2017-09-04T01:40:20.676Z,20.56
2017-09-04T01:42:26.887Z,20.42
2017-09-04T01:44:33.030Z,20.85
2017-09-04T01:46:43.411Z,20.32
2017-09-04T01:48:52.181Z,19.83
2017-09-04T01:50:59.067Z,20.45
2017-09-04T01:53:05.105Z,21.10
2017-09-04T01:55:11.731Z,21.12
2017-09-04T01:57:17.993Z,21.40
2017-09-04T01:59:25.172Z,21.11
2017-09-04T02:01:32.727Z,21.24
2017-09-04T02:03:42.323Z,20.73
2017-09-04T02:05:50.340Z,20.88
2017-09-04T02:07:57.091Z,20.61
2017-09-04T02:10:04.304Z,21.44
2017-09-04T02:12:12.715Z,22.02
2017-09-04T02:14:19.975Z,21.35
2017-09-04T02:16:26.385Z,21.20
2017-09-04T02:18:34.506Z,20.82
2017-09-04T02:20:51.372Z,20.59
2017-09-04T02:22:58.479Z,20.78
2017-09-04T02:25:04.669Z,20.70
2017-09-04T02:27:10.581Z,21.14
2017-09-04T02:29:17.271Z,21.55
2017-09-04T02:31:23.851Z,21.37
2017-09-04T02:33:29.965Z,21.52
2017-09-04T02:35:39.563Z,21.49
2017-09-04T02:37:46.513Z,21.79
2017-09-04T02:39:55.097Z,21.35
2017-09-04T02:42:01.026Z,21.75
2017-09-04T02:44:07.208Z,21.67
2017-09-04T02:46:13.129Z,21.36
2017-09-04T02:48:19.111Z,21.51
2017-09-04T02:50:25.580Z,22.14
2017-09-04T02:52:31.683Z,21.39
2017-09-04T02:54:41.768Z,21.42
2017-09-04T02:56:49.498Z,21.78
2017-09-04T02:58:57.382Z,21.93
2017-09-04T03:01:03.563Z,21.79
2017-09-04T03:03:09.549Z,20.84
2017-09-04T03:05:15.452Z,20.70
2017-09-04T03:07:21.727Z,21.28
2017-09-04T03:09:27.999Z,21.41
2017-09-04T03:11:34.601Z,21.45
2017-09-04T03:13:45.012Z,21.15
2017-09-04T03:15:52.617Z,21.63
2017-09-04T03:17:59.059Z,21.55
2017-09-04T03:20:05.226Z,21.19
2017-09-04T03:22:11.204Z,21.01
2017-09-04T03:24:17.193Z,20.93
2017-09-04T03:26:23.152Z,20.91
2017-09-04T03:28:29.067Z,21.34
2017-09-04T03:30:37.199Z,21.41
2017-09-04T03:32:44.452Z,21.82
2017-09-04T03:34:52.771Z,21.17
2017-09-04T03:36:59.107Z,21.81
2017-09-04T03:39:05.681Z,21.87
2017-09-04T03:41:12.413Z,22.02
2017-09-04T03:43:19.259Z,21.76
2017-09-04T03:45:26.229Z,21.79
2017-09-04T03:47:44.682Z,22.00
2017-09-04T03:49:54.791Z,21.87
2017-09-04T03:52:01.057Z,21.31
2017-09-04T03:54:06.890Z,21.59
2017-09-04T03:56:13.229Z,20.77
2017-09-04T03:58:20.052Z,21.04
2017-09-04T04:00:26.411Z,21.28
2017-09-04T04:02:33.610Z,21.81
2017-09-04T04:04:43.249Z,21.91
2017-09-04T04:06:49.665Z,21.42
2017-09-04T04:08:58.811Z,21.33
2017-09-04T04:11:05.573Z,20.48
2017-09-04T04:13:12.224Z,20.38
2017-09-04T04:15:19.722Z,19.92
2017-09-04T04:17:32.349Z,20.02
2017-09-04T04:19:43.617Z,19.88
2017-09-04T04:21:51.303Z,19.90
2017-09-04T04:24:02.781Z,19.86
2017-09-04T04:26:08.934Z,19.56
2017-09-04T04:28:16.664Z,19.72
2017-09-04T04:30:24.215Z,20.02
2017-09-04T04:32:47.146Z,20.16
2017-09-04T04:34:56.530Z,19.96
2017-09-04T04:37:03.374Z,20.50
2017-09-04T04:39:10.432Z,20.31
2017-09-04T04:41:17.932Z,20.27
2017-09-04T04:43:24.406Z,20.66
2017-09-04T04:45:44.820Z,20.40
2017-09-04T04:47:53.274Z,20.10
2017-09-04T04:50:03.205Z,19.77
2017-09-04T04:52:10.677Z,19.94
2017-09-04T04:54:22.129Z,20.24
2017-09-04T04:56:39.650Z,19.95
2017-09-04T04:58:53.377Z,20.46
2017-09-04T05:01:02.291Z,19.63
2017-09-04T05:03:09.958Z,19.30
2017-09-04T05:05:16.399Z,19.70
2017-09-04T05:07:23.940Z,19.26
2017-09-04T05:09:29.440Z,19.25
2017-09-04T05:13:47.080Z,19.36
2017-09-04T05:15:57.305Z,19.57
2017-09-04T05:18:06.096Z,19.24
2017-09-04T05:20:11.923Z,18.89
2017-09-04T05:22:23.586Z,19.02
2017-09-04T05:24:35.061Z,18.69
2017-09-04T05:26:47.321Z,19.28
2017-09-04T05:28:58.322Z,19.11
2017-09-04T05:31:08.770Z,19.30
2017-09-04T05:33:19.763Z,19.44
2017-09-04T05:35:27.752Z,19.23
2017-09-04T05:37:35.428Z,19.57
2017-09-04T05:39:59.797Z,19.29
2017-09-04T05:42:07.560Z,19.42
2017-09-04T05:44:17.261Z,19.46
2017-09-04T05:46:22.978Z,19.43
2017-09-04T05:50:52.570Z,19.55
2017-09-04T05:52:59.770Z,19.30
2017-09-04T05:55:16.489Z,19.79
2017-09-04T05:57:23.842Z,19.49
2017-09-04T05:59:32.877Z,19.22
2017-09-04T06:01:47.657Z,19.64
2017-09-04T06:03:56.386Z,19.53
2017-09-04T06:06:04.480Z,19.85
2017-09-04T06:08:28.224Z,19.68
2017-09-04T06:10:35.209Z,19.69
2017-09-04T06:12:45.368Z,20.04
2017-09-04T06:14:55.612Z,19.51
2017-09-04T06:17:02.246Z,20.24
2017-09-04T06:19:21.188Z,20.88
2017-09-04T06:21:30.389Z,20.65
2017-09-04T06:23:40.269Z,20.65
2017-09-04T06:25:51.226Z,20.82
2017-09-04T06:28:01.433Z,20.85
2017-09-04T06:30:07.357Z,21.00
2017-09-04T06:32:15.136Z,20.32
2017-09-04T06:34:22.450Z,20.19
2017-09-04T06:36:28.209Z,20.37
2017-09-04T06:38:33.778Z,20.30
2017-09-04T06:40:42.299Z,19.86
2017-09-04T06:42:50.099Z,20.23
2017-09-04T06:44:58.886Z,20.22
2017-09-04T06:47:05.108Z,19.73
2017-09-04T06:49:10.814Z,20.01
2017-09-04T06:51:16.419Z,19.87
2017-09-04T06:53:22.731Z,19.96
2017-09-04T06:55:28.380Z,20.16
2017-09-04T06:57:34.370Z,20.82
2017-09-04T06:59:50.611Z,20.29
2017-09-04T07:01:56.831Z,20.22
2017-09-04T07:04:03.008Z,20.10
2017-09-04T07:06:10.324Z,20.48
2017-09-04T07:08:16.206Z,20.39
2017-09-04T07:10:21.946Z,20.17
2017-09-04T07:12:28.571Z,19.90
2017-09-04T07:14:35.016Z,20.33
2017-09-04T07:16:44.457Z,20.35
2017-09-04T07:18:50.915Z,20.18
2017-09-04T07:20:57.854Z,20.15
2017-09-04T07:23:05.404Z,20.14
2017-09-04T07:25:12.415Z,20.61
2017-09-04T07:27:18.415Z,21.09
2017-09-04T07:29:24.124Z,21.19
2017-09-04T07:31:31.624Z,20.56
2017-09-04T07:33:37.542Z,20.50
2017-09-04T07:35:46.387Z,20.69
2017-09-04T07:37:53.797Z,20.82
2017-09-04T07:40:03.762Z,20.47
2017-09-04T07:42:10.468Z,20.63
2017-09-04T07:44:17.004Z,20.78
2017-09-04T07:46:22.572Z,20.79
2017-09-04T07:48:28.097Z,21.00
2017-09-04T07:50:35.666Z,21.67
2017-09-04T07:52:47.668Z,21.21
2017-09-04T07:54:55.819Z,21.25
2017-09-04T07:57:03.149Z,21.08
2017-09-04T07:59:09.788Z,21.00
2017-09-04T08:01:16.007Z,20.87
2017-09-04T08:03:22.083Z,21.36
2017-09-04T08:05:29.069Z,21.98
2017-09-04T08:07:35.476Z,21.30
2017-09-04T08:09:44.427Z,21.57
2017-09-04T08:11:50.644Z,21.58
2017-09-04T08:13:56.932Z,22.08
2017-09-04T08:16:03.074Z,21.66
2017-09-04T08:18:09.225Z,21.66
2017-09-04T08:20:14.889Z,21.94
2017-09-04T08:22:25.866Z,21.88
2017-09-04T08:24:32.064Z,22.12
2017-09-04T08:26:41.053Z,21.99
2017-09-04T08:28:48.183Z,22.13
2017-09-04T08:30:56.232Z,22.30
2017-09-04T08:33:02.338Z,22.23
2017-09-04T08:35:10.009Z,21.90
2017-09-04T08:37:16.101Z,22.76
2017-09-04T08:39:22.246Z,23.02
2017-09-04T08:41:28.713Z,22.77
2017-09-04T08:43:35.242Z,22.82
2017-09-04T08:45:45.805Z,22.94
2017-09-04T08:47:58.892Z,23.07
2017-09-04T08:50:05.617Z,23.05
2017-09-04T08:52:12.258Z,22.88
2017-09-04T08:54:18.781Z,23.04
2017-09-04T08:56:32.895Z,23.24
2017-09-04T08:58:40.068Z,23.35
2017-09-04T09:00:47.401Z,23.35
2017-09-04T09:02:54.446Z,23.35
2017-09-04T09:05:00.149Z,23.01
2017-09-04T09:09:18.216Z,23.24
2017-09-04T09:11:23.534Z,23.42
2017-09-04T09:13:29.907Z,23.41
2017-09-04T09:15:35.363Z,23.41
2017-09-04T09:17:45.150Z,23.43
2017-09-04T09:19:51.178Z,23.42
2017-09-04T09:21:57.615Z,23.22
2017-09-04T09:24:03.205Z,23.54
2017-09-04T09:26:10.413Z,23.34
2017-09-04T09:28:17.036Z,23.59
2017-09-04T09:30:24.638Z,23.46
2017-09-04T09:32:30.657Z,23.32
2017-09-04T09:34:43.038Z,23.60
2017-09-04T09:36:51.570Z,23.65
2017-09-04T09:39:03.135Z,23.79
2017-09-04T09:41:09.868Z,23.69
2017-09-04T09:43:15.715Z,23.65
2017-09-04T09:45:21.566Z,23.94
2017-09-04T09:47:26.945Z,24.02
2017-09-04T09:49:32.895Z,23.64
2017-09-04T09:51:42.935Z,23.72
2017-09-04T09:53:49.879Z,23.45
2017-09-04T09:55:56.840Z,23.60
2017-09-04T09:58:04.083Z,24.04
2017-09-04T10:00:10.911Z,23.68
2017-09-04T10:02:18.712Z,23.83
2017-09-04T10:04:25.271Z,24.14
2017-09-04T10:06:31.578Z,24.17
2017-09-04T10:08:43.202Z,24.07
2017-09-04T10:10:49.701Z,24.43
2017-09-04T10:12:58.071Z,24.54
2017-09-04T10:15:04.908Z,24.28
2017-09-04T10:17:13.146Z,24.26
2017-09-04T10:19:18.852Z,24.48
2017-09-04T10:21:24.464Z,24.45
2017-09-04T10:23:30.332Z,24.28
2017-09-04T10:25:41.332Z,24.50
2017-09-04T10:27:49.137Z,24.43
2017-09-04T10:29:57.142Z,24.54
2017-09-04T10:32:03.078Z,24.57
2017-09-04T10:34:09.004Z,24.54
2017-09-04T10:36:15.559Z,24.30
2017-09-04T10:38:26.035Z,24.23
2017-09-04T10:40:35.309Z,24.24
2017-09-04T10:42:49.365Z,24.18
2017-09-04T10:44:55.099Z,24.34
2017-09-04T10:47:00.967Z,24.39
2017-09-04T10:49:07.715Z,24.38
2017-09-04T10:51:13.461Z,24.40
2017-09-04T10:53:19.272Z,24.38
2017-09-04T10:55:25.032Z,24.42
2017-09-04T10:57:31.105Z,24.40
2017-09-04T10:59:40.314Z,24.57
2017-09-04T11:01:46.366Z,24.81
2017-09-04T11:03:53.865Z,24.75
2017-09-04T11:06:01.050Z,24.62
2017-09-04T11:08:11.631Z,24.59
2017-09-04T11:10:18.279Z,24.63
2017-09-04T11:12:24.599Z,24.49
2017-09-04T11:14:31.969Z,24.48
2017-09-04T11:16:42.973Z,24.35
2017-09-04T11:18:49.660Z,24.46
2017-09-04T11:20:56.657Z,24.31
2017-09-04T11:23:02.709Z,24.57
2017-09-04T11:25:10.957Z,24.78
2017-09-04T11:27:17.653Z,24.71
2017-09-04T11:29:23.397Z,24.47
2017-09-04T11:31:32.277Z,24.38
2017-09-04T11:33:43.653Z,24.31
2017-09-04T11:35:50.630Z,24.38
2017-09-04T11:38:00.085Z,24.54
2017-09-04T11:40:05.780Z,24.90
2017-09-04T11:42:11.512Z,24.80
2017-09-04T11:44:17.402Z,24.44
2017-09-04T11:46:23.103Z,24.72
2017-09-04T11:48:28.694Z,24.83
2017-09-04T11:50:35.358Z,24.75
2017-09-04T11:52:46.696Z,24.80
2017-09-04T11:54:55.204Z,24.76
2017-09-04T11:57:01.321Z,24.92
2017-09-04T11:59:06.947Z,24.94
2017-09-04T12:01:12.521Z,24.92
2017-09-04T12:03:18.106Z,25.02
2017-09-04T12:05:23.680Z,24.76
2017-09-04T12:07:29.472Z,24.52
2017-09-04T12:09:38.192Z,24.83
2017-09-04T12:11:46.870Z,25.04
2017-09-04T12:13:54.280Z,25.12
2017-09-04T12:16:00.237Z,25.46
2017-09-04T12:18:08.234Z,26.18
2017-09-04T12:20:15.441Z,25.95
2017-09-04T12:22:24.250Z,26.41
2017-09-04T12:24:30.105Z,27.07
2017-09-04T12:26:40.202Z,27.10
2017-09-04T12:28:52.423Z,27.24
2017-09-04T12:31:03.126Z,27.36
2017-09-04T12:33:10.892Z,27.43
2017-09-04T12:35:18.814Z,27.61
2017-09-04T12:37:29.116Z,27.81
2017-09-04T12:39:36.153Z,27.86
2017-09-04T12:41:50.765Z,28.06
2017-09-04T12:43:57.937Z,27.59
2017-09-04T12:46:06.109Z,27.16
2017-09-04T12:48:13.280Z,26.52
2017-09-04T12:50:21.748Z,27.07
2017-09-04T12:52:28.878Z,26.86
2017-09-04T12:54:40.310Z,26.49
2017-09-04T12:56:50.103Z,27.43
2017-09-04T12:58:57.292Z,28.08
2017-09-04T13:01:03.893Z,28.27
2017-09-04T13:03:10.065Z,28.42
2017-09-04T13:05:19.149Z,28.50
2017-09-04T13:07:25.280Z,28.25
2017-09-04T13:09:31.059Z,27.07
2017-09-04T13:11:41.560Z,27.80
2017-09-04T13:16:11.711Z,28.69
2017-09-04T13:18:22.036Z,27.10
2017-09-04T13:20:35.084Z,27.32
2017-09-04T13:22:50.257Z,28.55
2017-09-04T13:25:08.825Z,28.86
2017-09-04T13:27:21.113Z,28.96
2017-09-04T13:29:32.487Z,29.11
2017-09-04T13:31:49.532Z,29.00
2017-09-04T13:34:02.162Z,27.29
2017-09-04T13:36:12.665Z,26.86
2017-09-04T13:38:24.361Z,27.79
2017-09-04T13:40:32.138Z,29.07
2017-09-04T13:42:43.265Z,29.15
2017-09-04T13:44:54.608Z,29.36
2017-09-04T13:48:10.100Z,29.34
2017-09-04T13:50:18.310Z,29.49
2017-09-04T13:52:28.533Z,27.72
2017-09-04T13:54:42.109Z,27.43
2017-09-04T13:56:57.677Z,28.00
2017-09-04T13:59:06.166Z,28.74
2017-09-04T14:01:13.588Z,29.31
2017-09-04T14:03:23.654Z,29.56
2017-09-04T14:05:31.577Z,29.65
2017-09-04T14:07:41.221Z,29.25
2017-09-04T14:09:51.527Z,27.52
2017-09-04T14:11:58.413Z,27.60
2017-09-04T14:14:09.513Z,28.95
2017-09-04T14:16:17.332Z,29.08
2017-09-04T14:18:44.076Z,29.30
2017-09-04T14:20:55.324Z,29.16
2017-09-04T14:23:03.273Z,28.73
2017-09-04T14:25:13.591Z,28.62
2017-09-04T14:27:38.877Z,27.63
2017-09-04T14:29:46.836Z,27.31
2017-09-04T14:31:54.783Z,27.30
2017-09-04T14:34:02.689Z,27.59
2017-09-04T14:36:09.658Z,27.54
2017-09-04T14:38:15.916Z,27.58
2017-09-04T14:40:26.138Z,27.90
2017-09-04T14:42:33.071Z,27.78
2017-09-04T14:44:43.197Z,27.84
2017-09-04T14:46:51.003Z,28.01
2017-09-04T14:48:58.888Z,28.04
2017-09-04T14:51:05.102Z,28.01
2017-09-04T14:53:13.350Z,28.05
2017-09-04T14:55:23.192Z,28.01
2017-09-04T14:57:34.370Z,27.45
2017-09-04T14:59:46.546Z,27.43
2017-09-04T15:01:57.477Z,27.79
2017-09-04T15:04:10.319Z,28.05
2017-09-04T15:06:30.502Z,27.88
2017-09-04T15:08:45.231Z,27.71
2017-09-04T15:10:56.941Z,27.71
2017-09-04T15:13:32.340Z,27.98
2017-09-04T15:15:47.937Z,28.11
2017-09-04T15:17:54.959Z,28.06
2017-09-04T15:20:02.060Z,27.76
2017-09-04T15:22:12.481Z,27.86
2017-09-04T15:24:18.998Z,28.20
2017-09-04T15:26:25.168Z,28.14
2017-09-04T15:28:32.823Z,28.19
2017-09-04T15:30:44.675Z,28.21
2017-09-04T15:32:52.902Z,28.07
2017-09-04T15:34:58.714Z,28.19
2017-09-04T15:37:06.173Z,28.30
2017-09-04T15:39:13.954Z,28.37
2017-09-04T15:41:22.181Z,28.53
2017-09-04T15:43:30.897Z,28.33
2017-09-04T15:45:41.438Z,28.43
2017-09-04T15:47:50.392Z,28.24
2017-09-04T15:49:57.708Z,28.05
2017-09-04T15:52:03.708Z,28.20
2017-09-04T15:54:10.064Z,28.09
2017-09-04T15:56:16.495Z,28.07
2017-09-04T15:58:23.706Z,28.30
2017-09-04T16:00:29.507Z,28.19
2017-09-04T16:02:38.508Z,28.15
2017-09-04T16:04:45.664Z,28.17
2017-09-04T16:06:55.820Z,28.09
2017-09-04T16:09:01.756Z,28.22
2017-09-04T16:11:08.889Z,28.07
2017-09-04T16:13:14.703Z,28.25
2017-09-04T16:15:21.113Z,28.21
2017-09-04T16:17:27.267Z,28.04
2017-09-04T16:19:33.690Z,28.01
2017-09-04T16:21:48.014Z,28.15
2017-09-04T16:23:54.877Z,28.08
2017-09-04T16:26:00.868Z,28.06
2017-09-04T16:28:08.386Z,28.00
2017-09-04T16:30:14.708Z,27.97
2017-09-04T16:32:22.871Z,28.00
2017-09-04T16:34:30.077Z,28.10
2017-09-04T16:36:38.679Z,28.09
2017-09-04T16:38:45.128Z,28.01
2017-09-04T16:40:51.467Z,27.79
2017-09-04T16:42:58.732Z,27.91
2017-09-04T16:45:09.074Z,27.78
2017-09-04T16:47:17.209Z,27.79
2017-09-04T16:49:24.527Z,27.81
2017-09-04T16:51:30.999Z,27.72
2017-09-04T16:53:45.482Z,27.64
2017-09-04T16:55:57.443Z,27.67
2017-09-04T16:58:06.362Z,27.69
2017-09-04T17:00:16.668Z,27.50
2017-09-04T17:02:23.611Z,27.30
2017-09-04T17:04:30.168Z,27.24
2017-09-04T17:06:39.664Z,27.39
2017-09-04T17:08:49.556Z,27.18
2017-09-04T17:11:01.009Z,27.16
2017-09-04T17:13:16.798Z,27.11
2017-09-04T17:15:27.790Z,27.01
2017-09-04T17:19:53.197Z,26.88
2017-09-04T17:22:10.104Z,26.98
2017-09-04T17:24:23.783Z,26.87
2017-09-04T17:26:44.283Z,26.64
2017-09-04T17:28:55.305Z,26.28
2017-09-04T17:31:03.378Z,26.32
2017-09-04T17:33:12.945Z,25.97
2017-09-04T17:35:19.815Z,26.10
2017-09-04T17:37:28.636Z,26.31
2017-09-04T17:41:52.170Z,25.98
2017-09-04T17:43:59.574Z,25.60
2017-09-04T17:46:12.302Z,25.66
2017-09-04T17:48:18.541Z,25.58
2017-09-04T17:50:30.522Z,25.49
2017-09-04T17:52:41.434Z,25.32
2017-09-04T17:54:52.343Z,25.81
2017-09-04T17:57:00.220Z,25.68
2017-09-04T17:59:06.150Z,25.48
2017-09-04T18:01:13.249Z,25.63
2017-09-04T18:03:18.944Z,25.66
2017-09-04T18:05:27.021Z,25.70
2017-09-04T18:07:33.174Z,25.54
2017-09-04T18:11:58.275Z,25.61
2017-09-04T18:14:06.977Z,25.33
2017-09-04T18:16:15.088Z,25.18
2017-09-04T18:18:22.195Z,25.37
2017-09-04T18:20:29.420Z,25.22
2017-09-04T18:22:43.634Z,25.45
2017-09-04T18:24:54.008Z,25.20
2017-09-04T18:27:00.283Z,25.19
2017-09-04T18:29:08.901Z,25.40
2017-09-04T18:31:15.058Z,25.34
2017-09-04T18:33:25.329Z,25.30
2017-09-04T18:35:31.524Z,24.86
2017-09-04T18:37:45.117Z,24.81
2017-09-04T18:40:00.267Z,24.76
2017-09-04T18:42:10.379Z,24.59
2017-09-04T18:44:17.385Z,24.47
2017-09-04T18:46:23.351Z,24.53
2017-09-04T18:48:31.069Z,24.61
2017-09-04T18:50:45.777Z,24.59
2017-09-04T19:01:47.710Z,24.33
2017-09-04T19:03:53.629Z,24.21
2017-09-04T19:05:59.929Z,24.10
2017-09-04T19:08:08.008Z,23.89
2017-09-04T19:10:14.369Z,23.74
2017-09-04T19:12:20.509Z,23.83
2017-09-04T19:14:26.220Z,23.77
2017-09-04T19:16:32.812Z,23.63
2017-09-04T19:18:43.084Z,23.61
2017-09-04T19:20:50.269Z,23.58
2017-09-04T19:22:56.483Z,23.55
2017-09-04T19:26:05.963Z,23.62
2017-09-04T19:28:12.168Z,23.37
2017-09-04T19:30:19.380Z,23.41
2017-09-04T19:32:25.254Z,23.39
2017-09-04T19:34:31.376Z,23.36
2017-09-04T19:36:40.333Z,23.33
2017-09-04T19:38:47.514Z,23.23
2017-09-04T19:40:57.756Z,23.25
2017-09-04T19:43:05.586Z,23.27
2017-09-04T19:45:35.209Z,23.05
2017-09-04T19:47:45.799Z,23.06
2017-09-04T19:49:54.650Z,23.04
2017-09-04T19:52:03.591Z,23.13
2017-09-04T19:54:10.152Z,22.90
2017-09-04T19:56:16.130Z,23.10
2017-09-04T19:58:22.195Z,23.05
2017-09-04T20:00:29.034Z,22.98
2017-09-04T20:02:40.458Z,22.88
2017-09-04T20:04:50.627Z,22.97
2017-09-04T20:06:58.187Z,23.09
2017-09-04T20:09:08.529Z,23.24
2017-09-04T20:11:18.253Z,23.31
2017-09-04T20:13:27.114Z,23.46
2017-09-04T20:15:41.223Z,23.34
2017-09-04T20:17:48.642Z,23.44
2017-09-04T20:19:56.402Z,23.48
2017-09-04T20:22:05.051Z,23.49
2017-09-04T20:24:13.445Z,23.46
2017-09-04T20:26:19.785Z,23.55
2017-09-04T20:28:26.911Z,23.40
2017-09-04T20:30:33.216Z,23.68
2017-09-04T20:32:43.478Z,23.60
2017-09-04T20:34:49.974Z,23.61
2017-09-04T20:36:57.024Z,23.73
2017-09-04T20:39:06.278Z,24.00
2017-09-04T20:41:15.059Z,24.00
2017-09-04T20:43:23.591Z,23.97
2017-09-04T20:45:31.509Z,24.13
2017-09-04T20:47:41.144Z,23.83
2017-09-04T20:49:51.691Z,23.50
2017-09-04T20:52:00.395Z,23.61
2017-09-04T20:54:05.998Z,23.38
2017-09-04T20:56:12.350Z,23.67
2017-09-04T20:58:19.199Z,23.43
2017-09-04T21:00:25.887Z,23.59
2017-09-04T21:02:31.475Z,23.51
2017-09-04T21:04:41.867Z,23.56
2017-09-04T21:06:55.908Z,23.36
2017-09-04T21:09:02.886Z,23.09
2017-09-04T21:11:16.656Z,22.95
2017-09-04T21:13:22.772Z,23.28
2017-09-04T21:15:29.442Z,23.27
2017-09-04T21:17:38.071Z,23.35
2017-09-04T21:19:44.901Z,23.37
2017-09-04T21:21:51.738Z,23.37
2017-09-04T21:23:58.706Z,23.23
2017-09-04T21:26:04.881Z,22.87
2017-09-04T21:28:11.611Z,22.88
2017-09-04T21:30:18.745Z,22.92
2017-09-04T21:32:24.833Z,22.99
2017-09-04T21:34:30.985Z,22.84
2017-09-04T21:36:41.436Z,22.72
2017-09-04T21:38:53.244Z,22.61
2017-09-04T21:41:01.570Z,22.63
2017-09-04T21:43:08.493Z,22.69
2017-09-04T21:45:14.374Z,22.68
2017-09-04T21:49:30.471Z,22.78
2017-09-04T21:51:40.725Z,22.77
2017-09-04T21:53:47.476Z,22.74
2017-09-04T21:55:55.592Z,22.66
2017-09-04T21:58:02.065Z,22.64
2017-09-04T22:00:09.926Z,22.52
2017-09-04T22:02:16.348Z,22.34
2017-09-04T22:04:22.559Z,22.37
2017-09-04T22:06:28.657Z,22.41
2017-09-04T22:08:35.587Z,22.47
2017-09-04T22:10:45.647Z,22.43
2017-09-04T22:12:55.403Z,22.54
2017-09-04T22:15:01.647Z,22.38
2017-09-04T22:17:09.414Z,22.81
2017-09-04T22:19:16.132Z,21.85
2017-09-04T22:21:22.668Z,20.79
2017-09-04T22:23:28.435Z,20.84
2017-09-04T22:25:34.572Z,20.81
2017-09-04T22:27:45.107Z,21.19
2017-09-04T22:29:55.040Z,21.36
2017-09-04T22:32:02.281Z,21.01
2017-09-04T22:34:11.841Z,20.86
2017-09-04T22:36:18.593Z,21.02
2017-09-04T22:38:24.695Z,20.98
2017-09-04T22:40:30.871Z,21.18
2017-09-04T22:42:39.307Z,21.25
2017-09-04T22:44:47.549Z,21.07
2017-09-04T22:46:55.364Z,21.15
2017-09-04T22:49:02.229Z,21.48
2017-09-04T22:51:08.615Z,21.64
2017-09-04T22:53:14.814Z,21.97
2017-09-04T22:55:20.614Z,22.10
2017-09-04T22:57:26.461Z,22.29
2017-09-04T22:59:32.116Z,21.92
2017-09-04T23:01:42.958Z,21.84
2017-09-04T23:03:51.295Z,22.20
2017-09-04T23:06:00.668Z,21.72
2017-09-04T23:08:06.552Z,21.93
2017-09-04T23:10:12.634Z,22.36
2017-09-04T23:12:19.560Z,22.52
2017-09-04T23:16:21.171Z,22.52
2017-09-04T23:18:27.691Z,22.70
2017-09-04T23:20:34.594Z,22.92
2017-09-04T23:22:44.234Z,22.83
2017-09-04T23:24:50.724Z,22.89
2017-09-04T23:26:57.853Z,22.73
